Time;durP1;ratioP1;P1;durP2;ratioP2;P2;SDS_P1;SDS_P2;PMS_P1;PMS_P2;Temp;Humidity;BMP_temperature;BMP_pressure;BME280_temperature;BME280_humidity;BME280_pressure;Samples;Min_cycle;Max_cycle;Signal;HPM_P1;HPM_P2
2023/05/04 00:01:47;;;;;;;8.30;7.70;;;;;;;;;;5111855;28;20387;-80
2023/05/04 00:04:13;;;;;;;7.50;6.90;;;;;;;;;;5111646;28;20388;-80
2023/05/04 00:06:39;;;;;;;7.45;6.85;;;;;;;;;;5111391;28;20799;-80
2023/05/04 00:09:05;;;;;;;8.40;7.70;;;;;;;;;;5111802;28;20384;-80
2023/05/04 00:11:32;;;;;;;8.27;7.68;;;;;;;;;;5111754;28;20381;-80
2023/05/04 00:13:58;;;;;;;7.53;6.93;;;;;;;;;;5111667;28;20400;-80
2023/05/04 00:16:24;;;;;;;8.30;7.80;;;;;;;;;;5111769;28;20404;-80
2023/05/04 00:18:50;;;;;;;8.35;7.85;;;;;;;;;;5111660;28;20400;-80
2023/05/04 00:21:16;;;;;;;8.32;7.72;;;;;;;;;;5094060;28;20430;-80
2023/05/04 00:23:42;;;;;;;8.40;7.80;;;;;;;;;;5111658;28;20378;-80
2023/05/04 00:26:08;;;;;;;7.93;7.38;;;;;;;;;;5111556;28;20425;-80
2023/05/04 00:28:34;;;;;;;8.43;7.82;;;;;;;;;;5111681;28;20922;-80
2023/05/04 00:31:00;;;;;;;8.85;8.23;;;;;;;;;;5111480;28;20599;-80
2023/05/04 00:33:26;;;;;;;8.57;7.97;;;;;;;;;;5093277;28;20877;-80
2023/05/04 00:35:52;;;;;;;8.68;8.07;;;;;;;;;;5186995;22;20914;-87
2023/05/04 00:38:18;;;;;;;9.02;8.43;;;;;;;;;;5069322;28;20391;-88
2023/05/04 00:40:44;;;;;;;9.10;8.50;;;;;;;;;;5073925;28;20862;-87
2023/05/04 00:43:10;;;;;;;8.93;8.32;;;;;;;;;;5072438;28;20422;-88
2023/05/04 00:45:36;;;;;;;8.55;7.93;;;;;;;;;;5074759;28;20411;-89
2023/05/04 00:48:02;;;;;;;8.63;8.02;;;;;;;;;;5063852;28;20389;-89
2023/05/04 00:50:28;;;;;;;8.80;8.15;;;;;;;;;;5070281;28;20394;-87
2023/05/04 00:52:55;;;;;;;9.52;8.82;;;;;;;;;;5065183;28;20424;-89
2023/05/04 00:55:22;;;;;;;8.75;8.18;;;;;;;;;;5071326;28;20502;-87
2023/05/04 00:57:49;;;;;;;8.90;8.30;;;;;;;;;;5073838;28;20384;-87
2023/05/04 01:00:15;;;;;;;8.90;8.30;;;;;;;;;;5073938;28;20732;-88
2023/05/04 01:02:41;;;;;;;9.18;8.57;;;;;;;;;;5068548;28;20382;-88
2023/05/04 01:05:08;;;;;;;8.73;8.20;;;;;;;;;;5070083;28;20383;-88
2023/05/04 01:07:40;;;;;;;8.38;7.82;;;;;;;;;;5073663;28;20380;-89
2023/05/04 01:10:19;;;;;;;8.48;7.88;;;;;;;;;;5073154;28;20516;-88
2023/05/04 01:12:53;;;;;;;9.27;8.65;;;;;;;;;;5073410;28;20391;-88
2023/05/04 01:15:20;;;;;;;8.68;8.07;;;;;;;;;;5072266;28;20878;-89
2023/05/04 01:17:46;;;;;;;8.90;8.20;;;;;;;;;;5070408;28;21172;-88
2023/05/04 01:20:12;;;;;;;9.25;8.55;;;;;;;;;;5073670;28;20444;-89
2023/05/04 01:22:39;;;;;;;9.38;8.68;;;;;;;;;;5073853;28;20453;-88
2023/05/04 01:25:05;;;;;;;9.60;9.00;;;;;;;;;;5074252;28;20475;-89
2023/05/04 01:27:42;;;;;;;9.07;8.48;;;;;;;;;;5074131;28;20379;-88
2023/05/04 01:30:23;;;;;;;9.13;8.53;;;;;;;;;;5064519;28;20376;-88
2023/05/04 01:32:49;;;;;;;9.68;9.00;;;;;;;;;;5073659;28;20379;-89
2023/05/04 01:35:15;;;;;;;9.23;8.53;;;;;;;;;;5073699;28;20419;-88
2023/05/04 01:37:42;;;;;;;9.55;8.95;;;;;;;;;;5074035;28;20375;-89
2023/05/04 01:40:08;;;;;;;9.30;8.70;;;;;;;;;;5074233;28;20791;-87
2023/05/04 01:42:34;;;;;;;9.88;9.18;;;;;;;;;;5070857;28;20710;-89
2023/05/04 01:45:00;;;;;;;9.35;8.75;;;;;;;;;;5071098;28;20396;-88
2023/05/04 01:47:26;;;;;;;10.23;9.52;;;;;;;;;;5070992;28;20396;-90
2023/05/04 01:49:52;;;;;;;9.93;9.32;;;;;;;;;;5072345;28;20410;-89
2023/05/04 01:52:18;;;;;;;10.30;9.60;;;;;;;;;;5072312;28;20388;-87
2023/05/04 01:54:44;;;;;;;10.13;9.23;;;;;;;;;;5072429;28;20822;-87
2023/05/04 01:57:10;;;;;;;10.20;9.50;;;;;;;;;;5073247;28;20384;-89
2023/05/04 01:59:36;;;;;;;10.70;9.90;;;;;;;;;;5055095;28;20515;-87
2023/05/04 02:02:02;;;;;;;9.98;9.27;;;;;;;;;;5053570;28;20848;-88
2023/05/04 02:04:28;;;;;;;10.13;9.50;;;;;;;;;;5053529;28;20388;-88
2023/05/04 02:06:54;;;;;;;10.60;9.90;;;;;;;;;;5053386;28;20386;-89
2023/05/04 02:09:20;;;;;;;10.45;9.70;;;;;;;;;;5053489;28;20923;-89
2023/05/04 02:11:46;;;;;;;10.07;9.37;;;;;;;;;;5053422;28;20385;-89
2023/05/04 02:14:12;;;;;;;10.50;9.80;;;;;;;;;;5053562;28;20441;-87
2023/05/04 02:16:38;;;;;;;10.63;9.93;;;;;;;;;;5053224;28;21031;-88
2023/05/04 02:19:04;;;;;;;10.88;10.07;;;;;;;;;;5053236;28;20435;-89
2023/05/04 02:21:30;;;;;;;10.98;10.18;;;;;;;;;;5053244;28;20385;-88
2023/05/04 02:23:58;;;;;;;10.90;10.10;;;;;;;;;;5053154;28;20886;-88
2023/05/04 02:26:24;;;;;;;11.30;10.50;;;;;;;;;;5053076;28;20721;-88
2023/05/04 02:28:49;;;;;;;10.90;10.15;;;;;;;;;;5053108;28;20439;-88
2023/05/04 02:31:16;;;;;;;11.20;10.50;;;;;;;;;;5066442;28;20437;-88
2023/05/04 02:33:42;;;;;;;11.35;10.45;;;;;;;;;;5072879;28;20887;-88
2023/05/04 02:36:08;;;;;;;11.18;10.48;;;;;;;;;;5071403;28;20408;-88
2023/05/04 02:38:34;;;;;;;11.23;10.43;;;;;;;;;;5072840;28;20383;-89
2023/05/04 02:41:00;;;;;;;12.23;11.13;;;;;;;;;;5071707;28;20455;-89
2023/05/04 02:43:26;;;;;;;11.00;10.30;;;;;;;;;;5052763;28;20457;-88
2023/05/04 02:45:52;;;;;;;11.38;10.57;;;;;;;;;;5052740;28;20797;-89
2023/05/04 02:48:18;;;;;;;11.27;10.57;;;;;;;;;;5066198;28;20384;-89
2023/05/04 02:50:45;;;;;;;11.50;10.70;;;;;;;;;;5072657;28;20395;-89
2023/05/04 02:53:11;;;;;;;11.47;10.67;;;;;;;;;;5072619;28;20434;-89
2023/05/04 02:55:37;;;;;;;10.95;10.15;;;;;;;;;;5072305;28;20400;-88
2023/05/04 02:58:03;;;;;;;11.50;10.70;;;;;;;;;;5072558;28;20443;-89
2023/05/04 03:00:29;;;;;;;11.50;10.77;;;;;;;;;;5068512;28;20520;-88
2023/05/04 03:02:55;;;;;;;11.73;10.88;;;;;;;;;;5062108;28;20478;-88
2023/05/04 03:05:21;;;;;;;11.90;11.00;;;;;;;;;;5069440;28;20382;-88
2023/05/04 03:07:47;;;;;;;11.77;10.97;;;;;;;;;;5072443;28;20413;-88
2023/05/04 03:10:13;;;;;;;11.48;10.68;;;;;;;;;;5072339;28;20376;-88
2023/05/04 03:12:39;;;;;;;12.57;11.68;;;;;;;;;;5072163;28;20380;-88
2023/05/04 03:15:06;;;;;;;11.68;10.77;;;;;;;;;;5072086;28;20434;-89
2023/05/04 03:17:32;;;;;;;12.30;11.40;;;;;;;;;;5072119;28;20380;-88
2023/05/04 03:19:58;;;;;;;12.55;11.63;;;;;;;;;;5072141;28;20376;-88
2023/05/04 03:22:24;;;;;;;13.48;12.48;;;;;;;;;;5072041;28;20403;-89
2023/05/04 03:24:50;;;;;;;12.93;12.05;;;;;;;;;;5071989;28;20462;-87
2023/05/04 03:27:16;;;;;;;12.50;11.60;;;;;;;;;;5071628;28;20414;-88
2023/05/04 03:29:42;;;;;;;13.03;12.03;;;;;;;;;;5071877;28;20384;-88
2023/05/04 03:32:08;;;;;;;12.85;11.75;;;;;;;;;;5072031;28;20847;-88
2023/05/04 03:34:34;;;;;;;12.82;11.90;;;;;;;;;;5070039;28;20420;-89
2023/05/04 03:37:00;;;;;;;12.63;11.73;;;;;;;;;;5071187;28;20411;-88
2023/05/04 03:39:26;;;;;;;13.48;12.48;;;;;;;;;;5065383;28;20502;-88
2023/05/04 03:41:52;;;;;;;13.27;12.30;;;;;;;;;;5071851;28;20384;-89
2023/05/04 03:44:18;;;;;;;12.75;11.85;;;;;;;;;;5071500;28;20390;-89
2023/05/04 03:46:44;;;;;;;13.15;12.25;;;;;;;;;;5070475;28;20772;-88
2023/05/04 03:49:10;;;;;;;13.75;12.75;;;;;;;;;;5071773;28;20384;-88
2023/05/04 03:51:36;;;;;;;13.60;12.70;;;;;;;;;;5071594;28;20744;-87
2023/05/04 03:54:02;;;;;;;14.63;13.43;;;;;;;;;;5070305;28;20404;-89
2023/05/04 03:56:28;;;;;;;13.77;12.77;;;;;;;;;;5057419;28;20386;-88
2023/05/04 03:58:54;;;;;;;14.20;13.23;;;;;;;;;;5070088;28;20384;-89
2023/05/04 04:01:20;;;;;;;14.57;13.47;;;;;;;;;;5070658;28;20419;-88
2023/05/04 04:03:46;;;;;;;13.80;12.70;;;;;;;;;;5071150;28;20391;-88
2023/05/04 04:06:12;;;;;;;14.13;13.02;;;;;;;;;;5064222;28;20745;-89
2023/05/04 04:08:38;;;;;;;14.63;13.43;;;;;;;;;;5069074;28;20391;-88
2023/05/04 04:11:04;;;;;;;13.88;12.82;;;;;;;;;;5062492;28;20447;-88
2023/05/04 04:13:30;;;;;;;13.68;12.73;;;;;;;;;;5061302;28;20384;-88
2023/05/04 04:15:56;;;;;;;14.63;13.52;;;;;;;;;;5068238;28;20384;-89
2023/05/04 04:18:25;;;;;;;14.93;13.73;;;;;;;;;;5069949;28;20384;-91
2023/05/04 04:20:51;;;;;;;15.10;13.90;;;;;;;;;;5069739;28;20849;-89
2023/05/04 04:23:18;;;;;;;15.43;14.23;;;;;;;;;;5070166;28;20382;-89
2023/05/04 04:25:45;;;;;;;15.20;14.10;;;;;;;;;;5069101;28;20391;-89
2023/05/04 04:28:11;;;;;;;15.60;14.48;;;;;;;;;;5068335;28;20415;-89
2023/05/04 04:30:37;;;;;;;15.90;14.80;;;;;;;;;;5069673;28;20513;-89
2023/05/04 04:33:03;;;;;;;15.27;14.18;;;;;;;;;;5069590;28;20392;-89
2023/05/04 04:35:31;;;;;;;14.93;13.82;;;;;;;;;;5068022;28;20564;-89
2023/05/04 04:37:57;;;;;;;15.73;14.63;;;;;;;;;;5068104;28;20376;-89
2023/05/04 04:40:23;;;;;;;15.17;14.07;;;;;;;;;;5068579;28;20446;-90
2023/05/04 04:42:49;;;;;;;15.77;14.50;;;;;;;;;;5068160;28;20801;-90
2023/05/04 04:45:15;;;;;;;15.68;14.48;;;;;;;;;;5069452;28;20383;-89
2023/05/04 04:47:41;;;;;;;15.20;14.10;;;;;;;;;;5069683;28;20415;-90
2023/05/04 04:50:08;;;;;;;15.68;14.57;;;;;;;;;;5069239;28;20387;-88
2023/05/04 04:52:34;;;;;;;15.80;14.60;;;;;;;;;;5069539;28;20379;-88
2023/05/04 04:55:00;;;;;;;16.08;14.88;;;;;;;;;;5063301;28;20742;-88
2023/05/04 04:57:26;;;;;;;16.45;15.15;;;;;;;;;;5065082;28;20403;-88
2023/05/04 04:59:53;;;;;;;16.35;15.15;;;;;;;;;;5070402;28;20372;-89
2023/05/04 05:02:19;;;;;;;16.40;15.20;;;;;;;;;;5069889;28;20376;-87
2023/05/04 05:04:46;;;;;;;16.27;15.07;;;;;;;;;;5067902;28;20379;-89
2023/05/04 05:07:12;;;;;;;16.50;15.20;;;;;;;;;;5068006;28;20418;-88
2023/05/04 05:09:38;;;;;;;17.30;15.98;;;;;;;;;;5069552;28;20886;-88
2023/05/04 05:12:04;;;;;;;17.13;15.70;;;;;;;;;;5075175;28;20376;-87
2023/05/04 05:14:30;;;;;;;15.73;14.60;;;;;;;;;;5069727;28;20404;-87
2023/05/04 05:16:57;;;;;;;16.95;15.65;;;;;;;;;;5069709;28;20440;-86
2023/05/04 05:19:23;;;;;;;17.63;16.23;;;;;;;;;;5069088;28;20377;-86
2023/05/04 05:21:49;;;;;;;17.75;16.33;;;;;;;;;;5070534;28;20849;-87
2023/05/04 05:24:16;;;;;;;17.30;16.00;;;;;;;;;;5070486;28;20469;-87
2023/05/04 05:26:42;;;;;;;17.85;16.45;;;;;;;;;;5070573;28;20392;-86
2023/05/04 05:29:08;;;;;;;17.73;16.33;;;;;;;;;;5072968;28;20380;-85
2023/05/04 05:31:34;;;;;;;18.27;16.88;;;;;;;;;;5074175;28;20459;-85
2023/05/04 05:34:00;;;;;;;17.92;16.60;;;;;;;;;;5073881;28;20401;-86
2023/05/04 05:36:27;;;;;;;18.40;16.92;;;;;;;;;;5072989;28;20395;-85
2023/05/04 05:38:53;;;;;;;18.95;17.42;;;;;;;;;;5073722;28;20857;-89
2023/05/04 05:41:19;;;;;;;21.42;19.52;;;;;;;;;;5058382;28;20393;-88
2023/05/04 05:43:46;;;;;;;19.98;18.25;;;;;;;;;;5073507;28;20856;-89
2023/05/04 05:46:12;;;;;;;20.70;18.98;;;;;;;;;;5073461;28;20453;-91
2023/05/04 05:48:38;;;;;;;20.00;18.30;;;;;;;;;;5073977;28;20751;-91
2023/05/04 05:51:04;;;;;;;20.43;18.83;;;;;;;;;;5064184;28;20373;-93
2023/05/04 05:53:30;;;;;;;19.83;18.13;;;;;;;;;;5070548;28;20383;-92
2023/05/04 05:55:56;;;;;;;20.47;18.67;;;;;;;;;;5066994;28;20420;-93
2023/05/04 05:58:22;;;;;;;19.80;18.10;;;;;;;;;;5055528;28;20375;-93
2023/05/04 06:00:51;;;;;;;18.58;17.10;;;;;;;;;;5073963;28;20372;-92
2023/05/04 06:03:17;;;;;;;18.77;17.27;;;;;;;;;;5072846;28;20475;-92
2023/05/04 06:05:43;;;;;;;19.20;17.70;;;;;;;;;;5074830;28;20414;-92
2023/05/04 06:08:09;;;;;;;20.23;18.45;;;;;;;;;;5068818;28;20424;-91
2023/05/04 06:10:35;;;;;;;19.23;17.52;;;;;;;;;;5072576;28;20384;-87
2023/05/04 06:13:01;;;;;;;18.58;17.10;;;;;;;;;;5073539;28;20934;-87
2023/05/04 06:15:27;;;;;;;19.25;17.73;;;;;;;;;;5072055;28;20403;-86
2023/05/04 06:17:53;;;;;;;20.10;18.50;;;;;;;;;;5073426;28;20422;-86
2023/05/04 06:20:19;;;;;;;18.98;17.38;;;;;;;;;;5069518;28;20737;-86
2023/05/04 06:22:45;;;;;;;19.92;18.33;;;;;;;;;;5070907;28;20380;-87
2023/05/04 06:25:11;;;;;;;20.05;18.45;;;;;;;;;;5072277;28;20397;-87
2023/05/04 06:27:37;;;;;;;20.35;18.65;;;;;;;;;;5071536;28;20388;-87
2023/05/04 06:30:04;;;;;;;21.67;19.85;;;;;;;;;;5071776;28;20398;-85
2023/05/04 06:32:30;;;;;;;21.52;19.73;;;;;;;;;;5072526;28;20865;-84
2023/05/04 06:34:56;;;;;;;20.95;19.23;;;;;;;;;;5065843;28;20436;-85
2023/05/04 06:37:22;;;;;;;20.20;18.50;;;;;;;;;;5036511;28;20408;-87
2023/05/04 06:39:48;;;;;;;20.23;18.55;;;;;;;;;;5050718;28;20385;-87
2023/05/04 06:42:14;;;;;;;20.67;18.98;;;;;;;;;;5048358;28;20397;-87
2023/05/04 06:44:40;;;;;;;21.20;19.40;;;;;;;;;;5047263;28;20389;-87
2023/05/04 06:47:06;;;;;;;20.33;18.42;;;;;;;;;;5052892;28;20515;-87
2023/05/04 06:49:33;;;;;;;20.60;18.80;;;;;;;;;;5052648;28;20381;-86
2023/05/04 06:51:59;;;;;;;19.65;17.95;;;;;;;;;;5050251;28;20394;-83
2023/05/04 06:54:26;;;;;;;20.53;18.67;;;;;;;;;;5050320;28;20488;-82
2023/05/04 06:56:52;;;;;;;19.42;17.63;;;;;;;;;;5049996;28;20373;-82
2023/05/04 06:59:19;;;;;;;19.55;17.95;;;;;;;;;;5048901;28;20922;-83
2023/05/04 07:01:46;;;;;;;19.10;17.50;;;;;;;;;;5052574;28;20386;-82
2023/05/04 07:04:15;;;;;;;19.38;17.75;;;;;;;;;;5049981;28;20455;-82
2023/05/04 07:06:42;;;;;;;19.90;18.08;;;;;;;;;;5052191;28;20389;-83
2023/05/04 07:09:08;;;;;;;18.33;16.90;;;;;;;;;;5051961;28;20381;-84
2023/05/04 07:11:34;;;;;;;18.75;17.15;;;;;;;;;;5052335;28;20742;-81
2023/05/04 07:14:00;;;;;;;18.30;16.80;;;;;;;;;;5052176;28;20954;-80
2023/05/04 07:16:26;;;;;;;18.73;17.25;;;;;;;;;;5052246;28;20851;-80
2023/05/04 07:18:52;;;;;;;18.00;16.57;;;;;;;;;;5051087;28;20394;-81
2023/05/04 07:21:18;;;;;;;16.33;15.13;;;;;;;;;;5052196;28;20394;-81
2023/05/04 07:23:44;;;;;;;15.77;14.63;;;;;;;;;;5052084;28;20890;-81
2023/05/04 07:26:10;;;;;;;16.40;15.10;;;;;;;;;;5052224;28;20473;-80
2023/05/04 07:28:37;;;;;;;16.70;15.43;;;;;;;;;;5052129;28;20423;-80
2023/05/04 07:31:03;;;;;;;16.65;15.30;;;;;;;;;;5051826;28;20392;-81
2023/05/04 07:33:29;;;;;;;15.30;14.20;;;;;;;;;;5052072;28;20416;-81
2023/05/04 07:35:59;;;;;;;17.40;15.90;;;;;;;;;;5059739;28;20838;-81
2023/05/04 07:38:28;;;;;;;16.13;14.82;;;;;;;;;;5071824;28;20386;-80
2023/05/04 07:40:54;;;;;;;13.52;12.52;;;;;;;;;;5071798;28;20379;-80
2023/05/04 07:43:20;;;;;;;14.15;13.02;;;;;;;;;;5071465;28;20886;-80
2023/05/04 07:45:46;;;;;;;15.00;13.90;;;;;;;;;;5071615;28;20479;-81
2023/05/04 07:48:12;;;;;;;14.02;13.02;;;;;;;;;;5071668;28;20469;-81
2023/05/04 07:50:38;;;;;;;14.43;13.43;;;;;;;;;;5071089;28;20900;-81
2023/05/04 07:53:04;;;;;;;14.02;13.02;;;;;;;;;;5070263;28;20396;-81
2023/05/04 07:55:30;;;;;;;14.80;13.80;;;;;;;;;;5071531;28;20403;-81
2023/05/04 07:57:56;;;;;;;14.70;13.52;;;;;;;;;;5071430;28;20749;-82
2023/05/04 08:00:22;;;;;;;14.35;13.35;;;;;;;;;;5070212;28;20392;-81
2023/05/04 08:02:48;;;;;;;15.13;13.93;;;;;;;;;;5071645;28;20387;-81
2023/05/04 08:05:14;;;;;;;14.80;13.57;;;;;;;;;;5063513;28;20468;-81
2023/05/04 08:07:41;;;;;;;15.50;14.40;;;;;;;;;;5071319;28;20908;-81
2023/05/04 08:10:07;;;;;;;16.33;15.05;;;;;;;;;;5071028;28;20462;-81
2023/05/04 08:12:33;;;;;;;16.90;15.60;;;;;;;;;;5071014;28;20384;-81
2023/05/04 08:14:59;;;;;;;15.98;14.77;;;;;;;;;;5070576;28;20460;-81
2023/05/04 08:17:25;;;;;;;15.55;14.43;;;;;;;;;;5071036;28;20372;-81
2023/05/04 08:19:52;;;;;;;14.97;13.83;;;;;;;;;;5071199;28;20382;-81
2023/05/04 08:22:18;;;;;;;14.13;13.05;;;;;;;;;;5071207;28;20375;-81
2023/05/04 08:24:46;;;;;;;12.45;11.35;;;;;;;;;;5063576;28;20384;-81
2023/05/04 08:27:15;;;;;;;14.55;13.45;;;;;;;;;;5071148;28;20383;-81
2023/05/04 08:29:41;;;;;;;11.88;11.05;;;;;;;;;;5070423;28;20383;-81
2023/05/04 08:32:07;;;;;;;11.13;10.23;;;;;;;;;;5070492;28;20380;-81
2023/05/04 08:34:34;;;;;;;10.85;10.00;;;;;;;;;;5069730;28;20392;-81
2023/05/04 08:37:01;;;;;;;12.23;11.30;;;;;;;;;;5070429;28;20404;-81
2023/05/04 08:39:27;;;;;;;12.55;11.50;;;;;;;;;;5071070;28;20379;-81
2023/05/04 08:41:53;;;;;;;11.75;10.85;;;;;;;;;;5070975;28;20383;-81
2023/05/04 08:44:19;;;;;;;9.65;8.82;;;;;;;;;;5070755;28;20395;-81
2023/05/04 08:46:51;;;;;;;8.82;8.23;;;;;;;;;;5069812;28;20387;-81
2023/05/04 08:49:17;;;;;;;7.82;7.05;;;;;;;;;;5069542;28;20392;-81
2023/05/04 08:51:45;;;;;;;8.48;7.78;;;;;;;;;;5070598;28;20390;-81
2023/05/04 08:54:11;;;;;;;8.30;7.43;;;;;;;;;;5069824;28;20395;-81
2023/05/04 08:56:38;;;;;;;7.78;7.20;;;;;;;;;;5070690;28;20800;-81
2023/05/04 08:59:04;;;;;;;7.70;7.00;;;;;;;;;;5065391;28;20791;-81
2023/05/04 09:01:32;;;;;;;7.75;7.05;;;;;;;;;;5070670;28;20390;-81
2023/05/04 09:04:00;;;;;;;6.88;6.38;;;;;;;;;;5072237;28;20376;-81
2023/05/04 09:06:27;;;;;;;6.50;5.80;;;;;;;;;;5074495;28;20885;-81
2023/05/04 09:08:53;;;;;;;7.40;6.70;;;;;;;;;;5074700;28;20391;-81
2023/05/04 09:11:20;;;;;;;7.28;6.57;;;;;;;;;;5074620;28;20388;-82
2023/05/04 09:13:46;;;;;;;6.88;6.38;;;;;;;;;;5074552;28;20376;-81
2023/05/04 09:16:13;;;;;;;6.47;6.07;;;;;;;;;;5074521;28;20382;-81
2023/05/04 09:18:40;;;;;;;5.82;5.32;;;;;;;;;;5074353;28;20445;-81
2023/05/04 09:21:06;;;;;;;5.82;5.35;;;;;;;;;;5073164;28;20810;-81
2023/05/04 09:23:33;;;;;;;6.30;5.70;;;;;;;;;;5074350;28;20376;-81
2023/05/04 09:25:59;;;;;;;6.25;5.78;;;;;;;;;;5074346;28;20384;-81
2023/05/04 09:28:35;;;;;;;6.13;5.72;;;;;;;;;;5074148;28;20402;-81
2023/05/04 09:31:02;;;;;;;6.40;5.90;;;;;;;;;;5074231;28;20951;-81
2023/05/04 09:33:28;;;;;;;6.10;5.68;;;;;;;;;;5072791;28;20545;-81
2023/05/04 09:35:56;;;;;;;5.88;5.47;;;;;;;;;;5073947;28;20947;-81
2023/05/04 09:38:25;;;;;;;6.10;5.65;;;;;;;;;;5074104;28;20857;-81
2023/05/04 09:40:51;;;;;;;5.68;5.28;;;;;;;;;;5073930;28;20372;-81
2023/05/04 09:43:17;;;;;;;6.47;5.97;;;;;;;;;;5074073;28;20463;-81
2023/05/04 09:45:47;;;;;;;6.63;6.03;;;;;;;;;;5073593;28;20383;-81
2023/05/04 09:48:20;;;;;;;6.50;6.00;;;;;;;;;;5074163;28;20400;-81
2023/05/04 09:50:56;;;;;;;6.73;6.23;;;;;;;;;;5074643;28;20665;-81
2023/05/04 09:53:27;;;;;;;6.10;5.60;;;;;;;;;;5073495;28;20376;-82
2023/05/04 09:56:05;;;;;;;6.72;6.25;;;;;;;;;;5073706;28;20439;-82
2023/05/04 09:58:32;;;;;;;6.30;5.80;;;;;;;;;;5060392;28;20421;-82
2023/05/04 10:01:00;;;;;;;6.97;6.47;;;;;;;;;;5073706;28;20375;-82
2023/05/04 10:03:27;;;;;;;6.40;5.90;;;;;;;;;;5073558;28;20376;-81
2023/05/04 10:05:53;;;;;;;5.80;5.40;;;;;;;;;;5074506;28;20433;-82
2023/05/04 10:08:19;;;;;;;6.20;5.60;;;;;;;;;;5073493;28;20926;-82
2023/05/04 10:10:45;;;;;;;5.97;5.47;;;;;;;;;;5073834;28;20383;-82
2023/05/04 10:13:11;;;;;;;5.90;5.30;;;;;;;;;;5072034;28;20817;-82
2023/05/04 10:15:41;;;;;;;5.78;5.28;;;;;;;;;;5073238;28;20408;-81
2023/05/04 10:18:10;;;;;;;5.13;4.72;;;;;;;;;;5073421;28;20382;-81
2023/05/04 10:20:37;;;;;;;6.32;5.80;;;;;;;;;;5071915;28;20376;-81
2023/05/04 10:23:06;;;;;;;6.30;5.30;;;;;;;;;;5073359;28;20380;-81
2023/05/04 10:25:41;;;;;;;5.30;4.80;;;;;;;;;;5073115;28;20375;-82
2023/05/04 10:28:18;;;;;;;5.00;4.57;;;;;;;;;;5073200;28;20394;-81
2023/05/04 10:30:44;;;;;;;4.88;4.57;;;;;;;;;;5072607;28;20387;-82
2023/05/04 10:33:11;;;;;;;4.00;3.70;;;;;;;;;;5073154;28;20381;-82
2023/05/04 10:35:48;;;;;;;4.57;4.28;;;;;;;;;;5072494;28;20408;-82
2023/05/04 10:38:14;;;;;;;4.45;4.03;;;;;;;;;;5072493;28;20462;-82
2023/05/04 10:40:40;;;;;;;4.50;4.20;;;;;;;;;;5072642;28;20447;-81
2023/05/04 10:43:08;;;;;;;4.18;3.88;;;;;;;;;;5072866;28;20380;-82
2023/05/04 10:45:40;;;;;;;5.15;4.10;;;;;;;;;;5069209;28;20386;-82
2023/05/04 10:48:07;;;;;;;4.20;3.90;;;;;;;;;;5072289;28;20399;-81
2023/05/04 10:50:42;;;;;;;7.53;6.10;;;;;;;;;;5070982;28;20857;-81
2023/05/04 10:53:09;;;;;;;4.40;3.97;;;;;;;;;;5069193;28;20375;-82
2023/05/04 10:55:42;;;;;;;3.87;3.57;;;;;;;;;;5070659;28;20473;-81
2023/05/04 10:58:10;;;;;;;3.20;3.00;;;;;;;;;;5068283;28;20853;-82
2023/05/04 11:00:43;;;;;;;3.05;2.85;;;;;;;;;;5071013;28;20376;-82
2023/05/04 11:03:11;;;;;;;3.72;3.42;;;;;;;;;;5070834;28;20491;-81
2023/05/04 11:05:44;;;;;;;3.65;3.35;;;;;;;;;;5071511;28;20879;-81
2023/05/04 11:08:17;;;;;;;3.50;3.20;;;;;;;;;;5069628;28;20717;-82
2023/05/04 11:10:43;;;;;;;3.20;3.00;;;;;;;;;;5071063;28;20864;-81
2023/05/04 11:13:12;;;;;;;3.00;2.80;;;;;;;;;;5072265;28;20394;-81
2023/05/04 11:15:48;;;;;;;3.28;2.97;;;;;;;;;;5072214;28;20442;-82
2023/05/04 11:18:14;;;;;;;3.05;2.85;;;;;;;;;;5072086;28;20391;-81
2023/05/04 11:20:41;;;;;;;3.00;2.70;;;;;;;;;;5072186;28;20879;-82
2023/05/04 11:23:09;;;;;;;3.03;2.70;;;;;;;;;;5072136;28;20372;-81
2023/05/04 11:25:36;;;;;;;2.85;2.40;;;;;;;;;;5071362;28;20737;-82
2023/05/04 11:28:02;;;;;;;2.60;2.40;;;;;;;;;;5070669;28;20881;-82
2023/05/04 11:30:32;;;;;;;5.37;2.77;;;;;;;;;;5071922;28;20433;-82
2023/05/04 11:32:59;;;;;;;2.58;2.35;;;;;;;;;;5071913;28;20861;-81
2023/05/04 11:35:25;;;;;;;2.63;2.43;;;;;;;;;;5071314;28;20518;-82
2023/05/04 11:37:52;;;;;;;3.45;2.60;;;;;;;;;;5070132;28;20934;-82
2023/05/04 11:40:27;;;;;;;4.03;2.80;;;;;;;;;;5069743;28;20936;-81
2023/05/04 11:42:54;;;;;;;2.78;2.58;;;;;;;;;;5071874;28;20740;-82
2023/05/04 11:45:22;;;;;;;2.92;2.70;;;;;;;;;;5070259;28;20895;-81
2023/05/04 11:47:48;;;;;;;3.35;3.08;;;;;;;;;;5070038;28;20799;-82
2023/05/04 11:50:15;;;;;;;3.50;3.20;;;;;;;;;;5071760;28;20391;-82
2023/05/04 11:52:42;;;;;;;3.08;2.88;;;;;;;;;;5071527;28;20740;-81
2023/05/04 11:55:09;;;;;;;3.60;3.33;;;;;;;;;;5071514;28;20400;-81
2023/05/04 11:57:36;;;;;;;3.83;2.50;;;;;;;;;;5071501;28;20407;-81
2023/05/04 12:00:07;;;;;;;3.17;2.70;;;;;;;;;;5071167;28;20372;-82
2023/05/04 12:02:34;;;;;;;3.08;2.67;;;;;;;;;;5071544;28;20387;-81
2023/05/04 12:05:00;;;;;;;2.70;2.50;;;;;;;;;;5071319;28;20799;-81
2023/05/04 12:07:27;;;;;;;3.60;2.95;;;;;;;;;;5071511;28;20383;-81
2023/05/04 12:09:53;;;;;;;3.00;2.80;;;;;;;;;;5071373;28;20446;-82
2023/05/04 12:12:20;;;;;;;3.03;2.77;;;;;;;;;;5071446;28;20919;-82
2023/05/04 12:14:53;;;;;;;2.80;2.60;;;;;;;;;;5071171;28;20901;-81
2023/05/04 12:17:19;;;;;;;2.33;2.13;;;;;;;;;;5071302;28;20466;-81
2023/05/04 12:19:56;;;;;;;2.80;2.33;;;;;;;;;;5071335;28;20375;-82
2023/05/04 12:22:27;;;;;;;2.67;2.40;;;;;;;;;;5071296;28;20380;-82
2023/05/04 12:24:53;;;;;;;2.13;1.92;;;;;;;;;;5071269;28;20732;-81
2023/05/04 12:27:19;;;;;;;2.47;2.28;;;;;;;;;;5071087;28;20395;-81
2023/05/04 12:29:45;;;;;;;2.70;2.10;;;;;;;;;;5071219;28;20380;-82
2023/05/04 12:32:11;;;;;;;2.60;2.40;;;;;;;;;;5071034;28;20922;-82
2023/05/04 12:34:37;;;;;;;3.10;2.63;;;;;;;;;;5071006;28;20407;-81
2023/05/04 12:37:03;;;;;;;2.78;2.55;;;;;;;;;;5069886;28;20392;-82
2023/05/04 12:39:31;;;;;;;2.80;2.60;;;;;;;;;;5074049;28;20379;-83
2023/05/04 12:41:58;;;;;;;2.92;2.40;;;;;;;;;;5075174;28;20379;-82
2023/05/04 12:44:24;;;;;;;2.88;2.60;;;;;;;;;;5075128;28;20478;-82
2023/05/04 12:46:50;;;;;;;3.08;2.80;;;;;;;;;;5075066;28;20384;-82
2023/05/04 12:49:16;;;;;;;3.00;2.70;;;;;;;;;;5074681;28;20444;-83
2023/05/04 12:51:43;;;;;;;3.17;2.97;;;;;;;;;;5075075;28;20505;-82
2023/05/04 12:54:09;;;;;;;2.90;2.60;;;;;;;;;;5074984;28;20855;-83
2023/05/04 12:56:36;;;;;;;2.95;2.75;;;;;;;;;;5074590;28;20740;-82
2023/05/04 12:59:02;;;;;;;3.70;3.40;;;;;;;;;;5074879;28;20415;-82
2023/05/04 13:01:28;;;;;;;4.22;3.78;;;;;;;;;;5074710;28;20472;-82
2023/05/04 13:03:54;;;;;;;2.85;2.65;;;;;;;;;;5074873;28;20939;-82
2023/05/04 13:06:20;;;;;;;3.38;3.08;;;;;;;;;;5074672;28;20371;-82
2023/05/04 13:08:46;;;;;;;5.88;5.35;;;;;;;;;;5074717;28;20733;-84
2023/05/04 13:11:12;;;;;;;3.73;3.37;;;;;;;;;;5074730;28;20864;-84
2023/05/04 13:13:38;;;;;;;3.60;3.30;;;;;;;;;;5074511;28;20441;-84
2023/05/04 13:16:04;;;;;;;3.53;2.92;;;;;;;;;;5074466;28;20423;-85
2023/05/04 13:18:30;;;;;;;4.50;4.10;;;;;;;;;;5068062;28;20368;-84
2023/05/04 13:20:57;;;;;;;4.23;3.30;;;;;;;;;;5074423;28;20375;-85
2023/05/04 13:23:23;;;;;;;4.23;3.43;;;;;;;;;;5074238;28;20857;-85
2023/05/04 13:25:49;;;;;;;5.50;3.25;;;;;;;;;;5074275;28;20406;-84
2023/05/04 13:28:16;;;;;;;6.07;3.03;;;;;;;;;;5074353;28;20379;-84
2023/05/04 13:30:42;;;;;;;3.20;2.90;;;;;;;;;;5074065;28;20372;-85
2023/05/04 13:33:08;;;;;;;3.20;2.90;;;;;;;;;;5072929;28;20474;-85
2023/05/04 13:35:34;;;;;;;2.90;2.60;;;;;;;;;;5073810;28;20497;-84
2023/05/04 13:38:00;;;;;;;2.60;2.40;;;;;;;;;;5072859;28;20376;-84
2023/05/04 13:40:26;;;;;;;3.10;2.80;;;;;;;;;;5074072;28;20865;-84
2023/05/04 13:42:52;;;;;;;3.33;3.03;;;;;;;;;;5074094;28;20464;-84
2023/05/04 13:45:21;;;;;;;4.07;3.67;;;;;;;;;;5073792;28;20861;-84
2023/05/04 13:47:47;;;;;;;3.80;3.50;;;;;;;;;;5073578;28;20391;-84
2023/05/04 13:50:13;;;;;;;4.30;3.90;;;;;;;;;;5073151;28;20396;-84
2023/05/04 13:52:39;;;;;;;5.20;4.70;;;;;;;;;;5073454;28;20387;-84
2023/05/04 13:55:06;;;;;;;6.00;4.07;;;;;;;;;;5073728;28;20560;-84
2023/05/04 13:57:32;;;;;;;4.90;4.10;;;;;;;;;;5073775;28;20421;-83
2023/05/04 13:59:58;;;;;;;4.97;4.47;;;;;;;;;;5073671;28;20536;-84
2023/05/04 14:02:24;;;;;;;4.80;4.30;;;;;;;;;;5073789;28;20750;-85
2023/05/04 14:04:50;;;;;;;6.50;5.00;;;;;;;;;;5073529;28;20908;-85
2023/05/04 14:07:17;;;;;;;5.73;4.80;;;;;;;;;;5072265;28;20874;-85
2023/05/04 14:09:43;;;;;;;5.13;4.38;;;;;;;;;;5073442;28;20388;-83
2023/05/04 14:12:09;;;;;;;4.78;4.13;;;;;;;;;;5073580;28;20391;-84
2023/05/04 14:14:35;;;;;;;4.50;3.90;;;;;;;;;;5073481;28;20889;-85
2023/05/04 14:17:01;;;;;;;3.00;2.78;;;;;;;;;;5073308;28;20386;-84
2023/05/04 14:19:27;;;;;;;2.60;2.40;;;;;;;;;;5073528;28;20378;-85
2023/05/04 14:21:54;;;;;;;3.10;2.78;;;;;;;;;;5073177;28;20378;-85
2023/05/04 14:24:20;;;;;;;2.90;2.70;;;;;;;;;;5073412;28;20391;-85
2023/05/04 14:26:46;;;;;;;3.38;3.08;;;;;;;;;;5074626;28;20415;-85
2023/05/04 14:29:12;;;;;;;4.20;3.45;;;;;;;;;;5073279;28;20884;-84